Time;durP1;ratioP1;P1;durP2;ratioP2;P2;SDS_P1;SDS_P2;PMS_P1;PMS_P2;Temp;Humidity;BMP_temperature;BMP_pressure;BME280_temperature;BME280_humidity;BME280_pressure;Samples;Min_cycle;Max_cycle;Signal;HPM_P1;HPM_P2
2022/03/27 00:01:26;;;;;;;4.28;3.88;;;;;;;;;;4940845;28;96321;-94
2022/03/27 00:03:53;;;;;;;6.07;4.30;;;;;;;;;;4956966;28;92636;-93
2022/03/27 00:06:19;;;;;;;5.15;4.65;;;;;;;;;;4955483;28;96278;-94
2022/03/27 00:08:46;;;;;;;6.80;5.07;;;;;;;;;;4956832;28;95973;-94
2022/03/27 00:11:24;;;;;;;6.80;4.97;;;;;;;;;;4956953;28;92407;-95
2022/03/27 00:13:51;;;;;;;8.98;5.07;;;;;;;;;;4956908;28;95993;-94
2022/03/27 00:16:18;;;;;;;6.60;5.38;;;;;;;;;;4967655;28;93674;-94
2022/03/27 00:18:44;;;;;;;7.85;5.30;;;;;;;;;;4976460;28;92420;-94
2022/03/27 00:21:11;;;;;;;6.63;5.60;;;;;;;;;;4978951;28;92461;-93
2022/03/27 00:23:38;;;;;;;7.25;6.32;;;;;;;;;;4976535;28;91878;-94
2022/03/27 00:26:04;;;;;;;9.00;5.78;;;;;;;;;;4976396;28;95052;-94
2022/03/27 00:28:34;;;;;;;11.60;6.30;;;;;;;;;;4976389;28;96404;-94
2022/03/27 00:31:02;;;;;;;7.32;6.32;;;;;;;;;;4958340;28;94860;-96
2022/03/27 00:33:28;;;;;;;7.20;6.22;;;;;;;;;;4956164;28;96602;-94
2022/03/27 00:35:55;;;;;;;8.02;6.47;;;;;;;;;;4956396;28;97533;-94
2022/03/27 00:38:22;;;;;;;7.00;5.53;;;;;;;;;;4957794;28;92443;-95
2022/03/27 00:40:50;;;;;;;11.50;5.90;;;;;;;;;;4959252;28;97243;-94
2022/03/27 00:43:17;;;;;;;7.50;6.32;;;;;;;;;;4956906;28;92396;-94
2022/03/27 00:45:44;;;;;;;10.07;6.82;;;;;;;;;;4956389;28;95869;-93
2022/03/27 00:48:10;;;;;;;8.85;6.70;;;;;;;;;;4956581;28;96363;-94
2022/03/27 00:50:37;;;;;;;8.20;6.30;;;;;;;;;;4956598;28;92525;-94
2022/03/27 00:53:03;;;;;;;10.13;6.60;;;;;;;;;;4956402;28;94433;-94
2022/03/27 00:55:30;;;;;;;8.38;7.18;;;;;;;;;;4954466;28;96815;-95
2022/03/27 00:57:56;;;;;;;9.07;6.68;;;;;;;;;;4955978;28;92477;-92
2022/03/27 01:00:38;;;;;;;8.15;6.60;;;;;;;;;;4956193;28;97162;-94
2022/03/27 01:03:05;;;;;;;10.00;6.78;;;;;;;;;;4959096;28;97449;-94
2022/03/27 01:05:32;;;;;;;8.93;6.95;;;;;;;;;;4956209;28;96345;-94
2022/03/27 01:08:04;;;;;;;8.65;6.60;;;;;;;;;;4955945;28;96509;-93
2022/03/27 01:10:30;;;;;;;9.80;6.68;;;;;;;;;;4955659;28;92457;-94
2022/03/27 01:12:57;;;;;;;8.88;6.35;;;;;;;;;;4956397;28;96148;-94
2022/03/27 01:15:24;;;;;;;10.85;6.75;;;;;;;;;;4958907;28;97357;-95
2022/03/27 01:17:50;;;;;;;9.95;6.57;;;;;;;;;;4975768;28;92376;-94
2022/03/27 01:20:22;;;;;;;7.78;6.45;;;;;;;;;;4973928;28;95213;-94
2022/03/27 01:22:48;;;;;;;9.43;6.70;;;;;;;;;;4975218;28;96948;-94
2022/03/27 01:25:14;;;;;;;8.93;6.45;;;;;;;;;;4978545;28;92486;-94
2022/03/27 01:27:41;;;;;;;9.73;6.93;;;;;;;;;;4975394;28;93673;-95
2022/03/27 01:30:08;;;;;;;9.25;7.05;;;;;;;;;;4966117;28;92788;-94
2022/03/27 01:32:34;;;;;;;11.25;6.68;;;;;;;;;;4955383;28;95717;-94
2022/03/27 01:35:00;;;;;;;8.88;7.10;;;;;;;;;;4955504;28;94387;-94
2022/03/27 01:37:27;;;;;;;7.57;6.63;;;;;;;;;;4956154;28;91808;-95
2022/03/27 01:39:54;;;;;;;9.75;6.90;;;;;;;;;;4955717;28;92991;-94
2022/03/27 01:42:20;;;;;;;10.00;7.25;;;;;;;;;;4955096;28;95841;-94
2022/03/27 01:44:46;;;;;;;10.73;6.60;;;;;;;;;;4955111;28;94838;-94
2022/03/27 01:47:13;;;;;;;11.15;6.57;;;;;;;;;;4977414;28;99387;-95
2022/03/27 01:49:40;;;;;;;9.85;7.00;;;;;;;;;;4975839;28;92458;-95
2022/03/27 01:52:07;;;;;;;9.63;7.07;;;;;;;;;;4976307;28;96396;-93
2022/03/27 01:54:34;;;;;;;9.00;7.60;;;;;;;;;;4975051;28;94984;-95
2022/03/27 01:57:01;;;;;;;9.32;7.20;;;;;;;;;;4975864;28;92696;-95
2022/03/27 01:59:28;;;;;;;7.78;6.90;;;;;;;;;;4976026;28;95699;-94
2022/03/27 02:01:54;;;;;;;11.55;7.55;;;;;;;;;;4974661;28;95146;-94
2022/03/27 02:04:21;;;;;;;7.70;6.90;;;;;;;;;;4974922;28;92599;-95
2022/03/27 02:06:48;;;;;;;9.18;7.18;;;;;;;;;;4974762;28;95589;-94
2022/03/27 02:09:14;;;;;;;8.68;6.90;;;;;;;;;;4977843;28;96108;-95
2022/03/27 02:11:41;;;;;;;8.20;7.15;;;;;;;;;;4979348;28;99512;-95
2022/03/27 02:14:08;;;;;;;9.65;7.18;;;;;;;;;;4977999;28;97728;-94
2022/03/27 02:16:35;;;;;;;9.52;7.65;;;;;;;;;;4978933;28;92419;-94
2022/03/27 02:19:03;;;;;;;11.43;8.38;;;;;;;;;;4979204;28;97357;-94
2022/03/27 02:21:30;;;;;;;11.68;8.07;;;;;;;;;;4978146;28;96992;-94
2022/03/27 02:23:56;;;;;;;11.65;8.25;;;;;;;;;;4978484;28;92612;-94
2022/03/27 02:26:23;;;;;;;11.20;8.38;;;;;;;;;;4979575;28;95881;-94
2022/03/27 02:28:49;;;;;;;11.35;8.70;;;;;;;;;;4978266;28;97909;-94
2022/03/27 02:31:16;;;;;;;12.50;8.80;;;;;;;;;;4981203;28;92396;-94
2022/03/27 02:33:43;;;;;;;12.95;9.35;;;;;;;;;;4960115;28;95582;-94
2022/03/27 02:36:10;;;;;;;12.88;8.23;;;;;;;;;;4978289;28;92417;-94
2022/03/27 02:38:36;;;;;;;14.07;8.48;;;;;;;;;;4979080;28;97129;-94
2022/03/27 02:41:04;;;;;;;8.30;6.72;;;;;;;;;;4977874;28;96347;-94
2022/03/27 02:43:31;;;;;;;8.90;7.88;;;;;;;;;;4977898;28;92452;-94
2022/03/27 02:45:57;;;;;;;10.30;7.60;;;;;;;;;;4969550;28;97456;-94
2022/03/27 02:48:24;;;;;;;10.80;8.90;;;;;;;;;;4958276;28;94557;-95
2022/03/27 02:50:50;;;;;;;12.65;9.15;;;;;;;;;;4962965;28;92115;-95
2022/03/27 02:53:17;;;;;;;11.57;8.57;;;;;;;;;;4958076;28;96264;-94
2022/03/27 02:55:43;;;;;;;9.75;8.30;;;;;;;;;;4958072;28;92419;-95
2022/03/27 02:58:10;;;;;;;14.43;9.60;;;;;;;;;;4957322;28;94836;-94
2022/03/27 03:00:37;;;;;;;13.40;10.02;;;;;;;;;;4958639;28;94918;-95
2022/03/27 03:03:03;;;;;;;15.10;10.40;;;;;;;;;;4957690;28;92504;-95
2022/03/27 03:05:30;;;;;;;17.52;9.85;;;;;;;;;;4941806;28;97032;-95
2022/03/27 03:07:57;;;;;;;13.93;9.85;;;;;;;;;;4958127;28;97307;-94
2022/03/27 03:10:24;;;;;;;13.98;9.50;;;;;;;;;;4958449;28;92477;-95
2022/03/27 03:12:50;;;;;;;11.43;9.07;;;;;;;;;;4961556;28;95378;-94
2022/03/27 03:15:17;;;;;;;11.73;8.88;;;;;;;;;;4962004;28;91714;-95
2022/03/27 03:17:43;;;;;;;12.55;8.75;;;;;;;;;;4978194;28;95512;-94
2022/03/27 03:20:11;;;;;;;10.85;8.52;;;;;;;;;;4977387;28;97012;-94
2022/03/27 03:22:40;;;;;;;11.73;8.50;;;;;;;;;;4976196;28;94849;-94
2022/03/27 03:25:07;;;;;;;12.55;8.80;;;;;;;;;;4977515;28;98896;-95
2022/03/27 03:27:34;;;;;;;11.15;8.05;;;;;;;;;;4977612;28;96161;-94
2022/03/27 03:30:00;;;;;;;13.73;8.32;;;;;;;;;;4977505;28;92554;-94
2022/03/27 03:32:27;;;;;;;10.25;8.57;;;;;;;;;;4963992;28;96891;-95
2022/03/27 03:34:53;;;;;;;9.27;7.82;;;;;;;;;;4960875;28;94575;-95
2022/03/27 03:37:19;;;;;;;9.85;7.95;;;;;;;;;;4958139;28;96150;-94
2022/03/27 03:39:46;;;;;;;11.48;8.45;;;;;;;;;;4957826;28;93096;-94
2022/03/27 03:42:13;;;;;;;8.93;7.78;;;;;;;;;;4957827;28;92532;-95
2022/03/27 03:44:40;;;;;;;9.88;8.18;;;;;;;;;;4958097;28;94348;-94
2022/03/27 03:47:07;;;;;;;11.45;8.50;;;;;;;;;;4955683;28;98502;-94
2022/03/27 03:49:33;;;;;;;10.82;8.25;;;;;;;;;;4957554;28;92419;-94
2022/03/27 03:52:00;;;;;;;9.23;7.97;;;;;;;;;;4957674;28;96226;-96
2022/03/27 03:54:26;;;;;;;14.05;9.23;;;;;;;;;;4958192;28;96459;-95
2022/03/27 03:56:53;;;;;;;11.32;8.93;;;;;;;;;;4961328;28;92429;-95
2022/03/27 03:59:19;;;;;;;11.65;8.85;;;;;;;;;;4958284;28;93553;-95
2022/03/27 04:01:55;;;;;;;12.88;8.93;;;;;;;;;;4957814;28;92452;-93
2022/03/27 04:04:22;;;;;;;12.10;8.23;;;;;;;;;;4957776;28;96325;-94
2022/03/27 04:06:48;;;;;;;12.23;9.45;;;;;;;;;;4956868;28;97118;-94
2022/03/27 04:09:14;;;;;;;10.57;8.38;;;;;;;;;;4956772;28;92476;-94
2022/03/27 04:11:41;;;;;;;11.40;8.65;;;;;;;;;;4956210;28;97137;-94
2022/03/27 04:14:07;;;;;;;14.05;9.05;;;;;;;;;;4957256;28;97344;-94
2022/03/27 04:16:34;;;;;;;11.10;8.73;;;;;;;;;;4957032;28;92485;-94
2022/03/27 04:19:01;;;;;;;10.73;8.82;;;;;;;;;;4960435;28;96953;-95
2022/03/27 04:21:27;;;;;;;11.52;8.90;;;;;;;;;;4957188;28;92473;-95
2022/03/27 04:23:53;;;;;;;11.25;8.68;;;;;;;;;;4957085;28;93691;-94
2022/03/27 04:26:20;;;;;;;10.73;8.73;;;;;;;;;;4958252;28;94353;-94
2022/03/27 04:28:47;;;;;;;11.35;9.57;;;;;;;;;;4957513;28;91704;-95
2022/03/27 04:31:14;;;;;;;13.63;9.90;;;;;;;;;;4956078;28;93957;-93
2022/03/27 04:33:41;;;;;;;12.80;9.75;;;;;;;;;;4958420;28;96218;-94
2022/03/27 04:36:08;;;;;;;13.55;9.93;;;;;;;;;;4955679;28;94863;-94
2022/03/27 04:38:35;;;;;;;13.00;9.57;;;;;;;;;;4959308;28;98795;-94
2022/03/27 04:41:02;;;;;;;16.75;10.20;;;;;;;;;;4956687;28;92572;-94
2022/03/27 04:43:29;;;;;;;13.65;9.43;;;;;;;;;;4956167;28;96236;-95
2022/03/27 04:45:55;;;;;;;14.23;9.45;;;;;;;;;;4964823;28;97359;-95
2022/03/27 04:48:22;;;;;;;12.73;9.27;;;;;;;;;;4977125;28;92976;-94
2022/03/27 04:50:48;;;;;;;14.27;9.73;;;;;;;;;;4976573;28;97185;-96
2022/03/27 04:53:15;;;;;;;11.63;9.27;;;;;;;;;;4977371;28;95942;-95
2022/03/27 04:55:41;;;;;;;12.88;10.25;;;;;;;;;;4976751;28;92490;-94
2022/03/27 04:58:08;;;;;;;12.55;9.57;;;;;;;;;;4976071;28;95840;-94
2022/03/27 05:00:35;;;;;;;12.07;10.57;;;;;;;;;;4978393;28;98989;-95
2022/03/27 05:03:02;;;;;;;12.95;10.25;;;;;;;;;;4975574;28;98997;-94
2022/03/27 05:05:30;;;;;;;14.25;9.73;;;;;;;;;;4975690;28;96155;-95
2022/03/27 05:07:58;;;;;;;16.85;10.07;;;;;;;;;;4976337;28;93108;-94
2022/03/27 05:10:25;;;;;;;12.35;9.82;;;;;;;;;;4974992;28;94270;-94
2022/03/27 05:12:51;;;;;;;13.93;9.52;;;;;;;;;;4976076;28;95708;-93
2022/03/27 05:15:18;;;;;;;12.73;9.63;;;;;;;;;;4973785;28;92469;-93
2022/03/27 05:17:46;;;;;;;11.73;9.88;;;;;;;;;;4956773;28;93092;-94
2022/03/27 05:20:12;;;;;;;13.52;10.38;;;;;;;;;;4956521;28;96690;-94
2022/03/27 05:22:40;;;;;;;13.23;9.73;;;;;;;;;;4958659;28;92445;-94
2022/03/27 05:25:07;;;;;;;14.90;9.70;;;;;;;;;;4954324;28;99810;-95
2022/03/27 05:27:33;;;;;;;13.30;9.90;;;;;;;;;;4956019;28;92441;-94
2022/03/27 05:30:00;;;;;;;12.82;9.23;;;;;;;;;;4956293;28;96592;-94
2022/03/27 05:32:26;;;;;;;12.60;10.10;;;;;;;;;;4955365;28;96313;-95
2022/03/27 05:34:53;;;;;;;13.82;9.57;;;;;;;;;;4955564;28;92534;-94
2022/03/27 05:37:19;;;;;;;13.48;9.02;;;;;;;;;;4955953;28;93167;-94
2022/03/27 05:39:46;;;;;;;11.43;8.25;;;;;;;;;;4939910;28;93405;-95
2022/03/27 05:42:12;;;;;;;11.15;9.55;;;;;;;;;;4956693;28;91742;-94
2022/03/27 05:44:38;;;;;;;13.90;9.93;;;;;;;;;;4958960;28;93589;-95
2022/03/27 05:47:05;;;;;;;11.27;9.05;;;;;;;;;;4956816;28;92485;-95
2022/03/27 05:49:31;;;;;;;12.50;9.50;;;;;;;;;;4954475;28;94761;-95
2022/03/27 05:51:58;;;;;;;10.68;8.48;;;;;;;;;;4955727;28;97158;-94
2022/03/27 05:54:24;;;;;;;11.15;8.95;;;;;;;;;;4956144;28;92478;-95
2022/03/27 05:56:56;;;;;;;11.73;9.32;;;;;;;;;;4956382;28;96056;-94
2022/03/27 05:59:22;;;;;;;11.38;8.95;;;;;;;;;;4955857;28;96719;-94
2022/03/27 06:01:49;;;;;;;11.43;8.43;;;;;;;;;;4956170;28;92512;-94
2022/03/27 06:04:16;;;;;;;9.98;8.70;;;;;;;;;;4956143;28;97446;-95
2022/03/27 06:06:42;;;;;;;10.10;8.60;;;;;;;;;;4958781;28;95097;-95
2022/03/27 06:09:09;;;;;;;10.88;8.45;;;;;;;;;;4955739;28;94620;-95
2022/03/27 06:11:35;;;;;;;9.70;8.45;;;;;;;;;;4955701;28;97619;-96
2022/03/27 06:14:01;;;;;;;11.07;8.63;;;;;;;;;;4954362;28;94848;-94
2022/03/27 06:16:28;;;;;;;9.60;8.05;;;;;;;;;;4938685;28;95964;-95
2022/03/27 06:18:55;;;;;;;10.45;8.60;;;;;;;;;;4955726;28;95752;-94
2022/03/27 06:21:21;;;;;;;10.68;7.78;;;;;;;;;;4955664;28;92406;-94
2022/03/27 06:23:48;;;;;;;11.20;7.82;;;;;;;;;;4956290;28;95265;-94
2022/03/27 06:26:14;;;;;;;9.35;7.35;;;;;;;;;;4956574;28;96523;-94
2022/03/27 06:28:41;;;;;;;9.38;7.60;;;;;;;;;;4959334;28;92723;-95
2022/03/27 06:31:07;;;;;;;11.40;8.43;;;;;;;;;;4955948;28;96157;-94
2022/03/27 06:33:34;;;;;;;9.43;8.07;;;;;;;;;;4955674;28;92497;-93
2022/03/27 06:36:01;;;;;;;9.05;7.22;;;;;;;;;;4956057;28;95864;-93
2022/03/27 06:38:31;;;;;;;10.05;7.63;;;;;;;;;;4953833;28;99897;-94
2022/03/27 06:40:57;;;;;;;8.70;6.97;;;;;;;;;;4955984;28;92496;-95
2022/03/27 06:43:24;;;;;;;7.38;6.63;;;;;;;;;;4956171;28;96161;-94
2022/03/27 06:45:50;;;;;;;9.90;7.80;;;;;;;;;;4955643;28;97504;-94
2022/03/27 06:48:17;;;;;;;8.15;7.25;;;;;;;;;;4959127;28;92464;-94
2022/03/27 06:50:44;;;;;;;11.27;7.60;;;;;;;;;;4956444;28;95893;-94
2022/03/27 06:53:14;;;;;;;8.43;7.13;;;;;;;;;;4956008;28;92345;-95
2022/03/27 06:55:41;;;;;;;10.60;7.95;;;;;;;;;;4958652;28;95214;-94
2022/03/27 06:58:08;;;;;;;9.20;7.13;;;;;;;;;;4960344;28;93445;-94
2022/03/27 07:03:20;;;;;;;9.82;7.35;;;;;;;;;;4958900;28;95236;-95
2022/03/27 07:05:47;;;;;;;9.27;7.20;;;;;;;;;;4960498;28;96643;-94
2022/03/27 07:08:17;;;;;;;11.45;7.30;;;;;;;;;;4960740;28;92488;-94
2022/03/27 07:10:44;;;;;;;11.43;7.75;;;;;;;;;;4963508;28;95779;-94
2022/03/27 07:13:12;;;;;;;9.85;7.72;;;;;;;;;;4959458;28;92412;-95
2022/03/27 07:15:40;;;;;;;11.05;8.18;;;;;;;;;;4964907;28;92418;-96
2022/03/27 07:18:08;;;;;;;9.95;7.70;;;;;;;;;;4979455;28;97135;-96
2022/03/27 07:20:36;;;;;;;9.20;7.70;;;;;;;;;;4978750;28;91634;-96
2022/03/27 07:23:06;;;;;;;9.93;7.75;;;;;;;;;;4978528;28;94313;-95
2022/03/27 07:25:35;;;;;;;10.10;7.97;;;;;;;;;;4977938;28;97147;-95
2022/03/27 07:28:05;;;;;;;15.43;7.97;;;;;;;;;;4977207;28;94684;-96
2022/03/27 07:30:32;;;;;;;11.48;8.18;;;;;;;;;;4966980;28;97734;-95
2022/03/27 07:32:58;;;;;;;11.48;8.32;;;;;;;;;;4960885;28;97164;-96
2022/03/27 07:35:30;;;;;;;12.52;8.70;;;;;;;;;;4953357;28;96721;-95
2022/03/27 07:37:57;;;;;;;10.38;7.72;;;;;;;;;;4955286;28;95531;-95
2022/03/27 07:40:24;;;;;;;12.52;8.07;;;;;;;;;;4940063;28;92389;-96
2022/03/27 07:42:51;;;;;;;9.90;7.97;;;;;;;;;;4954343;28;96510;-95
2022/03/27 07:45:18;;;;;;;8.95;7.40;;;;;;;;;;4954954;28;92735;-95
2022/03/27 07:47:45;;;;;;;9.60;7.70;;;;;;;;;;4954425;28;92411;-95
2022/03/27 07:50:12;;;;;;;11.35;8.23;;;;;;;;;;4954846;28;96979;-94
2022/03/27 07:52:39;;;;;;;10.63;7.80;;;;;;;;;;4953559;28;98038;-95
2022/03/27 07:55:06;;;;;;;10.35;7.85;;;;;;;;;;4957998;28;92810;-96
2022/03/27 07:57:32;;;;;;;9.00;7.70;;;;;;;;;;4955146;28;96410;-95
2022/03/27 07:59:59;;;;;;;10.82;7.93;;;;;;;;;;4955771;28;92435;-95
2022/03/27 08:02:25;;;;;;;13.43;10.57;;;;;;;;;;4955207;28;96860;-95
2022/03/27 08:04:52;;;;;;;10.85;8.05;;;;;;;;;;4954091;28;96485;-95
2022/03/27 08:07:19;;;;;;;11.90;9.00;;;;;;;;;;4954300;28;93824;-96
2022/03/27 08:09:45;;;;;;;10.65;8.55;;;;;;;;;;4955923;28;96254;-95
2022/03/27 08:12:14;;;;;;;11.38;7.90;;;;;;;;;;4940391;28;96517;-94
2022/03/27 08:14:43;;;;;;;11.60;9.00;;;;;;;;;;4956201;28;92436;-94
2022/03/27 08:17:11;;;;;;;13.38;9.00;;;;;;;;;;4940669;28;95476;-96
2022/03/27 08:19:38;;;;;;;10.68;8.85;;;;;;;;;;4957169;28;92407;-96
2022/03/27 08:22:04;;;;;;;13.15;8.68;;;;;;;;;;4954975;28;93501;-96
2022/03/27 08:24:33;;;;;;;13.75;8.95;;;;;;;;;;4939881;28;96049;-96
2022/03/27 08:27:00;;;;;;;9.77;7.70;;;;;;;;;;4955494;28;92450;-95
2022/03/27 08:29:29;;;;;;;18.45;8.80;;;;;;;;;;4955906;28;96793;-95
2022/03/27 08:31:58;;;;;;;13.90;8.75;;;;;;;;;;4955366;28;96078;-96
2022/03/27 08:34:25;;;;;;;11.48;9.07;;;;;;;;;;4940838;28;91694;-96
2022/03/27 08:36:51;;;;;;;15.48;9.20;;;;;;;;;;4955263;28;96206;-96
2022/03/27 08:39:18;;;;;;;12.85;9.00;;;;;;;;;;4958100;28;97221;-95
2022/03/27 08:41:46;;;;;;;10.80;8.52;;;;;;;;;;4954326;28;97126;-95
2022/03/27 08:44:15;;;;;;;13.50;8.32;;;;;;;;;;4956520;28;96690;-96
2022/03/27 08:46:42;;;;;;;10.07;8.43;;;;;;;;;;4959870;28;92518;-96
2022/03/27 08:49:28;;;;;;;9.95;7.63;;;;;;;;;;4958336;28;96642;-95
2022/03/27 08:52:01;;;;;;;11.90;8.20;;;;;;;;;;4958041;28;96493;-96
2022/03/27 08:54:40;;;;;;;11.95;8.10;;;;;;;;;;4958207;28;92479;-93
2022/03/27 08:57:09;;;;;;;11.93;9.38;;;;;;;;;;4959182;28;97002;-94
2022/03/27 08:59:37;;;;;;;11.07;7.93;;;;;;;;;;4960888;28;96474;-93
2022/03/27 09:02:04;;;;;;;13.70;8.00;;;;;;;;;;4942338;28;95437;-95
2022/03/27 09:04:31;;;;;;;8.98;7.80;;;;;;;;;;4957353;28;97111;-95
2022/03/27 09:07:00;;;;;;;12.65;7.30;;;;;;;;;;4956863;28;94838;-94
2022/03/27 09:09:31;;;;;;;11.70;7.82;;;;;;;;;;4957486;28;97766;-95
2022/03/27 09:11:58;;;;;;;13.13;8.10;;;;;;;;;;4956779;28;97308;-95
2022/03/27 09:14:26;;;;;;;9.85;7.57;;;;;;;;;;4956770;28;92396;-96
2022/03/27 09:17:03;;;;;;;14.15;7.88;;;;;;;;;;4958038;28;95927;-96
2022/03/27 09:19:43;;;;;;;13.50;7.53;;;;;;;;;;4957274;28;95861;-94
2022/03/27 09:22:14;;;;;;;10.80;7.43;;;;;;;;;;4960487;28;92422;-93
2022/03/27 09:24:41;;;;;;;11.98;7.03;;;;;;;;;;4958734;28;96274;-93
2022/03/27 09:27:08;;;;;;;7.57;6.82;;;;;;;;;;4957748;28;92509;-93
2022/03/27 09:29:54;;;;;;;10.80;6.97;;;;;;;;;;4957753;28;95918;-95
2022/03/27 09:32:25;;;;;;;9.55;6.90;;;;;;;;;;4954892;28;96267;-95
2022/03/27 09:35:03;;;;;;;7.22;6.43;;;;;;;;;;4940732;28;92706;-94
2022/03/27 09:37:30;;;;;;;6.50;5.90;;;;;;;;;;4957108;28;97213;-94
2022/03/27 09:39:58;;;;;;;9.50;6.15;;;;;;;;;;4955874;28;94767;-95
2022/03/27 09:42:25;;;;;;;6.43;5.72;;;;;;;;;;4956156;28;93411;-95
2022/03/27 09:45:11;;;;;;;7.43;5.93;;;;;;;;;;4958522;28;97130;-94
2022/03/27 09:47:38;;;;;;;7.78;5.47;;;;;;;;;;4956217;28;93837;-95
2022/03/27 09:50:05;;;;;;;5.75;5.35;;;;;;;;;;4955585;28;96662;-94
2022/03/27 09:52:33;;;;;;;6.35;5.72;;;;;;;;;;4955875;28;99218;-94
2022/03/27 09:55:07;;;;;;;6.78;5.40;;;;;;;;;;4955285;28;94349;-96
2022/03/27 09:57:37;;;;;;;7.88;5.30;;;;;;;;;;4953820;28;98968;-95
2022/03/27 10:00:14;;;;;;;6.80;5.30;;;;;;;;;;4956313;28;98186;-95
2022/03/27 10:02:43;;;;;;;6.63;5.43;;;;;;;;;;4956293;28;94626;-95
2022/03/27 10:05:17;;;;;;;5.72;5.10;;;;;;;;;;4954470;28;98330;-94
2022/03/27 10:07:45;;;;;;;6.03;5.50;;;;;;;;;;4957556;28;99407;-95
2022/03/27 10:10:19;;;;;;;7.68;5.15;;;;;;;;;;4954913;28;99432;-94
2022/03/27 10:12:46;;;;;;;7.10;5.40;;;;;;;;;;4954352;28;97528;-95
2022/03/27 10:15:14;;;;;;;7.30;4.90;;;;;;;;;;4955135;28;94097;-95
2022/03/27 10:17:43;;;;;;;5.07;4.65;;;;;;;;;;4954576;28;97314;-95
2022/03/27 10:20:10;;;;;;;;;;;;;;;;;;4954474;28;99811;-95
2022/03/27 10:22:39;;;;;;;4.68;4.07;;;;;;;;;;4953312;28;119974;-94
2022/03/27 10:25:09;;;;;;;7.18;4.50;;;;;;;;;;4955532;28;101324;-94
2022/03/27 10:27:36;;;;;;;5.18;3.88;;;;;;;;;;4953788;28;99580;-95
2022/03/27 10:30:06;;;;;;;7.32;4.45;;;;;;;;;;4958832;28;94881;-94
2022/03/27 10:32:33;;;;;;;5.88;4.20;;;;;;;;;;4957709;28;99237;-95
2022/03/27 10:35:09;;;;;;;7.70;4.53;;;;;;;;;;4957958;28;94787;-96
2022/03/27 10:37:42;;;;;;;4.43;3.80;;;;;;;;;;4957522;28;94841;-95
2022/03/27 10:40:08;;;;;;;5.18;4.05;;;;;;;;;;4957744;28;98875;-95
2022/03/27 10:42:45;;;;;;;5.82;3.08;;;;;;;;;;4957734;28;94831;-95
2022/03/27 10:45:17;;;;;;;5.72;3.55;;;;;;;;;;4957191;28;96097;-94
2022/03/27 10:48:03;;;;;;;8.38;3.60;;;;;;;;;;4938802;28;101255;-95
2022/03/27 10:50:30;;;;;;;10.07;3.95;;;;;;;;;;4956728;28;94897;-94
2022/03/27 10:52:59;;;;;;;;;;;;;;;;;;4960264;28;99367;-95
2022/03/27 10:55:45;;;;;;;5.32;2.90;;;;;;;;;;4959095;28;121032;-94
2022/03/27 10:58:44;;;;;;;6.20;3.13;;;;;;;;;;4958002;28;99638;-94
2022/03/27 11:01:23;;;;;;;6.47;3.13;;;;;;;;;;4946470;28;98671;-95
2022/03/27 11:03:52;;;;;;;3.40;3.00;;;;;;;;;;4958236;28;94951;-93
2022/03/27 11:06:28;;;;;;;9.68;3.55;;;;;;;;;;4958452;28;97840;-94
2022/03/27 11:08:56;;;;;;;5.03;3.17;;;;;;;;;;4957821;28;99349;-94
2022/03/27 11:11:35;;;;;;;6.35;3.47;;;;;;;;;;4956880;28;94875;-94
2022/03/27 11:14:02;;;;;;;;;;;;;;;;;;4959465;28;97934;-94
2022/03/27 11:16:28;;;;;;;7.82;3.42;;;;;;;;;;4956845;28;120157;-95
2022/03/27 11:18:55;;;;;;;7.28;3.60;;;;;;;;;;4957347;28;99142;-96
2022/03/27 11:21:26;;;;;;;9.07;3.40;;;;;;;;;;4956704;28;100141;-95
2022/03/27 11:23:55;;;;;;;6.38;3.20;;;;;;;;;;4957497;28;94864;-95
2022/03/27 11:26:21;;;;;;;8.35;3.65;;;;;;;;;;4957536;28;99176;-95
2022/03/27 11:28:51;;;;;;;4.88;3.20;;;;;;;;;;4957276;28;98653;-94
2022/03/27 11:31:22;;;;;;;9.30;3.38;;;;;;;;;;4956842;28;94115;-95
2022/03/27 11:34:17;;;;;;;7.45;3.47;;;;;;;;;;4956466;28;97130;-94
2022/03/27 11:36:45;;;;;;;7.35;3.72;;;;;;;;;;4959446;28;98017;-95
2022/03/27 11:39:13;;;;;;;9.77;3.50;;;;;;;;;;4956104;28;99260;-95
2022/03/27 11:41:45;;;;;;;7.20;3.53;;;;;;;;;;4956084;28;99328;-95
2022/03/27 11:45:06;;;;;;;6.63;3.45;;;;;;;;;;4956312;28;94764;-96
2022/03/27 11:47:12;;;;;;;13.07;4.25;;;;;;;;;;4956573;28;99122;-95
2022/03/27 11:49:40;;;;;;;9.05;3.38;;;;;;;;;;4956708;28;99493;-94
2022/03/27 11:52:08;;;;;;;10.00;4.43;;;;;;;;;;4955870;28;94876;-93
2022/03/27 11:54:35;;;;;;;5.93;3.45;;;;;;;;;;4957789;28;97672;-95
2022/03/27 11:57:02;;;;;;;9.98;3.97;;;;;;;;;;4956608;28;97944;-96
2022/03/27 11:59:31;;;;;;;9.88;3.70;;;;;;;;;;4960387;28;94743;-94
2022/03/27 12:02:02;;;;;;;7.28;3.80;;;;;;;;;;4957555;28;99087;-94
2022/03/27 12:04:29;;;;;;;9.30;3.67;;;;;;;;;;4954834;28;97174;-94
2022/03/27 12:06:57;;;;;;;10.25;3.80;;;;;;;;;;4957248;28;101315;-96
2022/03/27 12:09:25;;;;;;;7.18;3.63;;;;;;;;;;4958366;28;96890;-95
2022/03/27 12:15:08;;;;;;;7.47;3.42;;;;;;;;;;4958736;28;97727;-95
2022/03/27 12:17:45;;;;;;;7.75;3.70;;;;;;;;;;4957558;28;98344;-94
2022/03/27 12:20:12;;;;;;;11.13;3.40;;;;;;;;;;4958303;28;94519;-96
2022/03/27 12:22:46;;;;;;;6.82;3.53;;;;;;;;;;4959579;28;98188;-96
2022/03/27 12:25:15;;;;;;;10.48;3.85;;;;;;;;;;4955940;28;94639;-94
2022/03/27 12:30:35;;;;;;;10.30;3.33;;;;;;;;;;4956740;28;97471;-94
2022/03/27 12:33:04;;;;;;;7.90;3.67;;;;;;;;;;4956309;28;94704;-95
2022/03/27 12:35:32;;;;;;;8.13;3.13;;;;;;;;;;4956493;28;97482;-96
2022/03/27 12:37:59;;;;;;;6.88;3.42;;;;;;;;;;4956096;28;99177;-94
2022/03/27 12:40:26;;;;;;;9.70;3.28;;;;;;;;;;4956162;28;94547;-93
2022/03/27 12:42:53;;;;;;;8.55;2.92;;;;;;;;;;4956033;28;97457;-95
2022/03/27 12:45:22;;;;;;;9.85;3.40;;;;;;;;;;4958539;28;98709;-96
2022/03/27 12:48:03;;;;;;;9.45;3.22;;;;;;;;;;4958233;28;97941;-95
2022/03/27 12:50:32;;;;;;;8.48;3.00;;;;;;;;;;4957075;28;99583;-94
2022/03/27 12:53:09;;;;;;;8.63;3.15;;;;;;;;;;4957118;28;93368;-96
2022/03/27 12:55:46;;;;;;;6.60;3.08;;;;;;;;;;4956244;28;97668;-94
2022/03/27 12:58:14;;;;;;;7.38;3.22;;;;;;;;;;4958592;28;97797;-94
2022/03/27 13:00:41;;;;;;;8.57;3.28;;;;;;;;;;4942036;28;92546;-95
2022/03/27 13:03:12;;;;;;;7.50;3.20;;;;;;;;;;4959271;28;96944;-94
2022/03/27 13:05:45;;;;;;;9.18;3.47;;;;;;;;;;4958248;28;96647;-94
2022/03/27 13:08:12;;;;;;;7.00;3.40;;;;;;;;;;4961082;28;92352;-94
2022/03/27 13:10:39;;;;;;;8.60;3.60;;;;;;;;;;4958360;28;98043;-92
2022/03/27 13:13:13;;;;;;;9.68;3.83;;;;;;;;;;4959004;28;91602;-95
2022/03/27 13:15:55;;;;;;;8.15;3.55;;;;;;;;;;4958183;28;95329;-94
2022/03/27 13:18:34;;;;;;;8.18;3.63;;;;;;;;;;4943323;28;97680;-93
2022/03/27 13:21:13;;;;;;;8.20;3.17;;;;;;;;;;4958272;28;94868;-94
2022/03/27 13:23:40;;;;;;;9.82;3.63;;;;;;;;;;4959432;28;98781;-94
2022/03/27 13:26:06;;;;;;;9.40;4.18;;;;;;;;;;4958308;28;96262;-94
2022/03/27 13:28:33;;;;;;;10.60;3.83;;;;;;;;;;4961677;28;92118;-95
2022/03/27 13:31:00;;;;;;;17.17;3.70;;;;;;;;;;4958747;28;96391;-94
2022/03/27 13:33:27;;;;;;;10.90;3.75;;;;;;;;;;4960119;28;92562;-93
2022/03/27 13:35:56;;;;;;;12.05;3.72;;;;;;;;;;4958219;28;96925;-95
2022/03/27 13:38:23;;;;;;;12.38;4.03;;;;;;;;;;4958566;28;95592;-93
2022/03/27 13:43:35;;;;;;;14.32;3.70;;;;;;;;;;4959361;28;95214;-93
2022/03/27 13:46:02;;;;;;;8.40;3.92;;;;;;;;;;4958510;28;97667;-94
2022/03/27 13:48:29;;;;;;;12.75;4.22;;;;;;;;;;4959567;28;92512;-95
2022/03/27 13:50:56;;;;;;;13.15;4.20;;;;;;;;;;4962125;28;95772;-95
2022/03/27 13:53:25;;;;;;;13.60;3.83;;;;;;;;;;4959205;28;92471;-95
2022/03/27 13:55:54;;;;;;;13.07;4.20;;;;;;;;;;4958065;28;96955;-94
2022/03/27 13:58:23;;;;;;;17.73;4.38;;;;;;;;;;4957290;28;96708;-94
2022/03/27 14:00:51;;;;;;;9.68;4.10;;;;;;;;;;4958278;28;92439;-94
2022/03/27 14:03:21;;;;;;;11.35;3.72;;;;;;;;;;4960143;28;96700;-94
2022/03/27 14:05:54;;;;;;;11.13;3.90;;;;;;;;;;4943621;28;97212;-94
2022/03/27 14:08:31;;;;;;;9.13;3.72;;;;;;;;;;4962576;28;92476;-94
2022/03/27 14:10:59;;;;;;;8.38;4.15;;;;;;;;;;4944105;28;95447;-94
2022/03/27 14:13:28;;;;;;;14.73;5.00;;;;;;;;;;4965037;28;95939;-94
2022/03/27 14:19:03;;;;;;;;;;;;;;;;;;;;;
2022/03/27 14:21:36;;;;;;;16.40;4.95;;;;;;;;;;4962105;28;92338;-94
2022/03/27 14:24:12;;;;;;;14.57;4.43;;;;;;;;;;4962390;28;96598;-95
2022/03/27 14:26:43;;;;;;;18.92;5.00;;;;;;;;;;4960486;28;96894;-94
2022/03/27 14:29:10;;;;;;;16.58;5.07;;;;;;;;;;4960671;28;92932;-95
2022/03/27 14:31:37;;;;;;;13.57;4.38;;;;;;;;;;4960654;28;96039;-96
2022/03/27 14:34:04;;;;;;;10.40;4.28;;;;;;;;;;4978177;28;96403;-96
2022/03/27 14:36:33;;;;;;;12.43;4.28;;;;;;;;;;4966864;28;94799;-96
2022/03/27 14:39:00;;;;;;;;;;;;;;;;;;4960278;28;97301;-95
2022/03/27 14:41:28;;;;;;;22.98;5.05;;;;;;;;;;4960690;28;118822;-95
2022/03/27 14:43:54;;;;;;;18.73;4.50;;;;;;;;;;4959672;28;96713;-96
2022/03/27 14:46:21;;;;;;;16.70;5.20;;;;;;;;;;4960752;28;95156;-95
2022/03/27 14:48:47;;;;;;;15.07;5.00;;;;;;;;;;4960752;28;92470;-96
2022/03/27 14:51:14;;;;;;;18.23;5.70;;;;;;;;;;4959426;28;96420;-95
2022/03/27 14:56:49;;;;;;;16.15;5.20;;;;;;;;;;4964312;28;92542;-94
2022/03/27 14:59:18;;;;;;;17.05;5.28;;;;;;;;;;4942435;28;97289;-94
2022/03/27 15:01:49;;;;;;;21.00;6.13;;;;;;;;;;4938067;28;94924;-95
2022/03/27 15:04:15;;;;;;;14.82;5.18;;;;;;;;;;4939236;28;99646;-95